AirNav   Pilot Hours Calculator
 
 839 users online  

MI43 Baraga County Memorial Hospital Heliport
L'Anse, Michigan, USA


FAA INFORMATION EFFECTIVE 05 DECEMBER 2019

Location

FAA Identifier: MI43
Lat/Long: 46-43-54.1200N 088-25-24.6200W
46-43.902000N 088-25.410333W
46.7317000,-88.4235056
(estimated)
Elevation: 985 ft. / 300 m (estimated)
From city: 2 miles SE of L'ANSE, MI
Time zone: UTC -5 (UTC -4 during Daylight Saving Time)
Zip code: 49946

Heliport Operations

Heliport use: Private use. Permission required prior to landing
Activation date: 08/2019
Control tower: no
ARTCC: MINNEAPOLIS CENTER
FSS: GREEN BAY FLIGHT SERVICE STATION
Attendance: 
Segmented circle: no

Nearby radio navigation aids

VOR radial/distance  VOR name  Freq  Var
CMXr176/26.4HOUGHTON VOR/DME112.8002W

Heliport Services

Runway Information

Helipad H1

Dimensions: 40 x 40 ft. / 12 x 12 m
Surface: concrete, in good condition
Latitude: 46-43.902000N
Longitude: 088-25.410333W
Elevation: 985.0 ft.
Traffic pattern: leftleft

Heliport Ownership and Management from official FAA records

Ownership: Privately-owned
Owner: BARAGA COUNTY MEMORIAL HOSPITAL
18341 HIGHWAY 41
L'ANSE, MI 49946
Phone 906-524-3300
Manager: BARAGA MEMORIAL HOSPITAL
18341 HIGHWAY 41
L'ANSE, MI 49946
Phone 906-524-3300

Heliport Operational Statistics

Aircraft based on the field: 4
Single engine airplanes: 1
Multi engine airplanes: 1
Helicopters: 1
Gliders airplanes: 1
    

Instrument Procedures

There are no published instrument procedures at MI43.

Some nearby airports with instrument procedures:

KCMX - Houghton County Memorial Airport (26 nm N)
KOGM - Ontonagon County Airport - Schuster Field (39 nm W)
KLNL - Kings Land O' Lakes Airport (48 nm SW)
KSAW - Sawyer International Airport (48 nm SE)
KIMT - Ford Airport (56 nm S)
 
Loc | Ops | Rwys | IFR | FBO | Links
Com | Nav | Svcs | Stats | Notes
Aerial photo
No photo
 
Airport distance calculator
Flying to Baraga County Memorial Hospital Heliport? Find the distance to fly.

From to MI43

Sunrise and sunset
Times for 12-Dec-2019
 Local
(UTC-5)
 Zulu
(UTC)
Morning civil twilight07:5512:55
Sunrise08:3013:30
Sunset17:0522:05
Evening civil twilight17:4022:40

Current date and time
Zulu (UTC)  13-Dec-2019 00:47:18
Local (UTC-5)  12-Dec-2019 19:47:18
 
METAR
KCMX 
26nm N 
130016Z AUTO 06010G17KT 8SM -SN BKN014 OVC020 M06/M08 A3002 RMK AO2 P0000 T10561083
KLNL 
48nm SW 
130035Z AUTO 36003KT 10SM OVC011 M09/M11 A2997 RMK AO2 T10951109
KSAW 
48nm SE 
122345Z 05006KT 7SM SCT004 OVC034 M07/M09 A2999
KP59 
49nm NE 
122351Z AUTO 00000KT M05/M07 A3008 RMK AO1 SLP205 P0001 60007 T10501072 11044 21067 $
TAF
KCMX 
26nm N 
121735Z 1218/1318 09006KT 3/4SM -SN OVC015 TEMPO 1218/1221 2SM -SN BKN025 FM122300 07007KT 3SM -SHSN BR BKN017 FM130200 06007KT 5SM -SHSN BR BKN020 FM130700 05005KT 4SM BR BKN020
NOTAMs
Click for the latest NOTAMs
NOTAMs are issued by the DoD/FAA and will open in a separate window not controlled by AirNav.

 

 
 

Would you like to see your business listed on this page?

 If your business provides an interesting product or service to pilots, flight crews, aircraft, or users of the Baraga County Memorial Hospital Heliport, you should consider listing it here.  To start the listing process, click on the button below
 
Add a business
 

Other Pages about Baraga County Memorial Hospital Heliport

Update a link
 
Copyright © AirNav, LLC. All rights reserved. Privacy Policy  Contact